createdAt,value
2023-01-07T00:01:14.169Z,8.93
2023-01-07T00:03:41.858Z,11.73
2023-01-07T00:06:12.654Z,10.85
2023-01-07T00:08:41.615Z,8.57
2023-01-07T00:11:10.900Z,8.18
2023-01-07T00:13:37.380Z,7.18
2023-01-07T00:16:07.404Z,7.53
2023-01-07T00:18:35.236Z,8.10
2023-01-07T00:21:04.465Z,7.40
2023-01-07T00:23:32.179Z,8.32
2023-01-07T00:26:06.654Z,9.35
2023-01-07T00:28:34.748Z,8.32
2023-01-07T00:31:07.457Z,8.00
2023-01-07T00:33:34.006Z,8.13
2023-01-07T00:36:06.582Z,7.60
2023-01-07T00:38:33.087Z,9.88
2023-01-07T00:40:59.539Z,11.30
2023-01-07T00:43:25.984Z,11.50
2023-01-07T00:45:52.642Z,10.77
2023-01-07T00:48:19.537Z,11.02
2023-01-07T00:50:48.575Z,10.00
2023-01-07T00:53:15.754Z,7.90
2023-01-07T00:55:42.228Z,7.25
2023-01-07T00:58:14.179Z,8.40
2023-01-07T01:00:40.530Z,7.60
2023-01-07T01:03:07.747Z,7.55
2023-01-07T01:05:34.104Z,8.75
2023-01-07T01:08:00.461Z,9.65
2023-01-07T01:10:26.829Z,11.70
2023-01-07T01:12:53.142Z,9.95
2023-01-07T01:15:20.045Z,7.93
2023-01-07T01:17:46.422Z,6.88
2023-01-07T01:20:14.821Z,6.35
2023-01-07T01:22:42.047Z,5.93
2023-01-07T01:25:09.513Z,6.65
2023-01-07T01:27:36.087Z,7.05
2023-01-07T01:30:03.093Z,6.60
2023-01-07T01:32:29.645Z,6.18
2023-01-07T01:34:56.099Z,6.88
2023-01-07T01:37:22.485Z,7.35
2023-01-07T01:39:48.896Z,6.60
2023-01-07T01:42:18.788Z,7.03
2023-01-07T01:44:59.575Z,7.90
2023-01-07T01:47:43.702Z,7.78
2023-01-07T01:50:24.903Z,9.32
2023-01-07T01:53:02.383Z,9.10
2023-01-07T01:55:45.858Z,8.35
2023-01-07T01:58:20.491Z,8.18
2023-01-07T02:00:47.386Z,8.00
2023-01-07T02:03:18.843Z,6.93
2023-01-07T02:05:46.182Z,8.18
2023-01-07T02:08:12.947Z,8.00
2023-01-07T02:10:39.704Z,8.65
2023-01-07T02:13:42.994Z,8.25
2023-01-07T02:16:23.601Z,7.88
2023-01-07T02:18:59.224Z,7.88
2023-01-07T02:21:51.511Z,8.23
2023-01-07T02:24:47.617Z,8.40
2023-01-07T02:27:32.398Z,8.63
2023-01-07T02:30:17.371Z,7.32
2023-01-07T02:32:46.745Z,8.05
2023-01-07T02:35:27.811Z,7.88
2023-01-07T02:38:04.362Z,7.80
2023-01-07T02:41:05.841Z,7.97
2023-01-07T02:44:02.709Z,7.88
2023-01-07T02:46:40.235Z,8.18
2023-01-07T02:49:11.380Z,7.07
2023-01-07T02:51:40.387Z,7.78
2023-01-07T02:54:12.171Z,7.85
2023-01-07T02:57:06.901Z,7.63
2023-01-07T02:59:49.344Z,7.82
2023-01-07T03:02:23.569Z,8.43
2023-01-07T03:05:07.130Z,7.22
2023-01-07T03:07:55.333Z,7.88
2023-01-07T03:10:25.975Z,7.53
2023-01-07T03:13:03.517Z,7.25
2023-01-07T03:15:40.566Z,7.88
2023-01-07T03:18:22.181Z,8.95
2023-01-07T03:20:53.266Z,9.10
2023-01-07T03:23:22.707Z,9.93
2023-01-07T03:25:52.025Z,7.60
2023-01-07T03:28:24.565Z,6.68
2023-01-07T03:30:54.508Z,7.10
2023-01-07T03:33:36.098Z,7.00
2023-01-07T03:36:06.089Z,6.75
2023-01-07T03:38:34.761Z,6.60
2023-01-07T03:41:01.694Z,7.15
2023-01-07T03:43:28.175Z,8.45
2023-01-07T03:45:57.798Z,8.45
2023-01-07T03:48:24.178Z,7.40
2023-01-07T03:50:50.520Z,7.05
2023-01-07T03:53:16.839Z,7.30
2023-01-07T03:55:43.334Z,7.32
2023-01-07T03:58:09.940Z,6.55
2023-01-07T04:00:36.279Z,6.10
2023-01-07T04:03:02.797Z,6.35
2023-01-07T04:05:29.308Z,5.95
2023-01-07T04:07:55.649Z,6.50
2023-01-07T04:10:22.071Z,6.88
2023-01-07T04:12:48.351Z,5.80
2023-01-07T04:15:14.942Z,6.35
2023-01-07T04:17:41.382Z,6.57
2023-01-07T04:20:08.267Z,6.38
2023-01-07T04:22:34.678Z,6.03
2023-01-07T04:25:00.995Z,6.13
2023-01-07T04:27:27.415Z,6.25
2023-01-07T04:29:53.768Z,6.03
2023-01-07T04:32:20.071Z,5.95
2023-01-07T04:34:46.548Z,6.05
2023-01-07T04:37:12.855Z,5.90
2023-01-07T04:39:39.211Z,5.93
2023-01-07T04:42:05.807Z,6.00
2023-01-07T04:44:32.131Z,6.07
2023-01-07T04:46:58.504Z,6.40
2023-01-07T04:49:24.910Z,6.55
2023-01-07T04:51:51.242Z,6.68
2023-01-07T04:54:17.910Z,7.55
2023-01-07T04:56:44.285Z,7.13
2023-01-07T04:59:10.771Z,6.47
2023-01-07T05:01:37.236Z,6.50
2023-01-07T05:04:03.926Z,6.68
2023-01-07T05:06:30.389Z,7.40
2023-01-07T05:08:56.886Z,6.10
2023-01-07T05:11:23.365Z,6.25
2023-01-07T05:13:49.911Z,6.07
2023-01-07T05:16:17.466Z,6.47
2023-01-07T05:18:44.312Z,6.95
2023-01-07T05:21:11.007Z,6.22
2023-01-07T05:23:37.664Z,5.07
2023-01-07T05:26:04.263Z,5.53
2023-01-07T05:28:30.625Z,5.60
2023-01-07T05:30:57.242Z,5.05
2023-01-07T05:33:23.831Z,5.82
2023-01-07T05:35:50.263Z,5.70
2023-01-07T05:38:16.958Z,5.25
2023-01-07T05:40:43.600Z,5.03
2023-01-07T05:43:09.953Z,5.70
2023-01-07T05:45:36.410Z,5.30
2023-01-07T05:48:02.885Z,5.85
2023-01-07T05:50:29.285Z,5.32
2023-01-07T05:52:55.720Z,5.45
2023-01-07T05:55:22.058Z,5.20
2023-01-07T05:57:48.396Z,5.72
2023-01-07T06:00:15.147Z,4.93
2023-01-07T06:02:41.494Z,5.18
2023-01-07T06:05:08.619Z,5.80
2023-01-07T06:07:35.697Z,5.70
2023-01-07T06:10:03.186Z,5.43
2023-01-07T06:12:30.178Z,5.43
2023-01-07T06:14:56.582Z,5.00
2023-01-07T06:17:23.028Z,4.63
2023-01-07T06:19:49.439Z,5.60
2023-01-07T06:22:15.863Z,4.95
2023-01-07T06:24:42.212Z,5.22
2023-01-07T06:27:10.409Z,4.60
2023-01-07T06:29:36.755Z,4.57
2023-01-07T06:32:03.282Z,4.75
2023-01-07T06:34:29.659Z,4.85
2023-01-07T06:36:56.074Z,4.65
2023-01-07T06:39:22.575Z,4.03
2023-01-07T06:41:48.950Z,4.50
2023-01-07T06:44:15.556Z,4.90
2023-01-07T06:46:42.245Z,4.47
2023-01-07T06:49:08.907Z,4.93
2023-01-07T06:51:35.389Z,5.38
2023-01-07T06:54:01.829Z,4.47
2023-01-07T06:56:28.184Z,4.63
2023-01-07T06:58:54.827Z,4.50
2023-01-07T07:01:21.607Z,4.22
2023-01-07T07:03:48.091Z,4.88
2023-01-07T07:06:14.580Z,4.47
2023-01-07T07:08:40.941Z,4.72
2023-01-07T07:11:07.281Z,5.32
2023-01-07T07:13:33.656Z,5.18
2023-01-07T07:16:00.068Z,5.70
2023-01-07T07:18:26.442Z,5.25
2023-01-07T07:20:53.115Z,5.55
2023-01-07T07:23:19.464Z,6.45
2023-01-07T07:25:45.796Z,5.72
2023-01-07T07:28:12.462Z,6.18
2023-01-07T07:30:46.735Z,5.82
2023-01-07T07:33:14.426Z,5.93
2023-01-07T07:35:40.771Z,5.97
2023-01-07T07:38:07.204Z,5.93
2023-01-07T07:40:33.687Z,5.53
2023-01-07T07:43:11.083Z,5.80
2023-01-07T07:45:39.956Z,6.43
2023-01-07T07:48:07.380Z,5.20
2023-01-07T07:50:34.864Z,5.97
2023-01-07T07:53:01.304Z,5.25
2023-01-07T07:55:27.961Z,5.40
2023-01-07T07:57:55.152Z,4.28
2023-01-07T08:00:21.864Z,3.90
2023-01-07T08:02:48.344Z,4.18
2023-01-07T08:05:14.732Z,5.28
2023-01-07T08:07:42.382Z,4.25
2023-01-07T08:10:09.243Z,4.63
2023-01-07T08:12:39.065Z,4.65
2023-01-07T08:15:07.437Z,5.30
2023-01-07T08:17:34.076Z,5.18
2023-01-07T08:20:00.436Z,8.93
2023-01-07T08:22:26.874Z,9.43
2023-01-07T08:24:53.514Z,8.00
2023-01-07T08:27:19.913Z,7.15
2023-01-07T08:29:46.340Z,7.68
2023-01-07T08:32:13.141Z,6.93
2023-01-07T08:34:39.784Z,5.25
2023-01-07T08:37:06.129Z,5.35
2023-01-07T08:39:32.790Z,3.78
2023-01-07T08:41:59.256Z,3.35
2023-01-07T08:44:25.588Z,3.25
2023-01-07T08:46:53.122Z,3.53
2023-01-07T08:49:19.501Z,4.00
2023-01-07T08:51:45.975Z,3.53
2023-01-07T08:54:12.304Z,2.90
2023-01-07T08:56:38.895Z,3.25
2023-01-07T08:59:05.470Z,3.40
2023-01-07T09:01:31.958Z,3.95
2023-01-07T09:03:58.487Z,3.35
2023-01-07T09:06:24.872Z,3.72
2023-01-07T09:08:51.525Z,3.80
2023-01-07T09:11:17.830Z,3.50
2023-01-07T09:13:44.270Z,3.55
2023-01-07T09:16:10.680Z,3.25
2023-01-07T09:18:37.014Z,3.22
2023-01-07T09:21:03.566Z,3.10
2023-01-07T09:23:30.110Z,2.97
2023-01-07T09:25:56.622Z,2.70
2023-01-07T09:28:23.085Z,3.17
2023-01-07T09:30:49.504Z,3.00
2023-01-07T09:33:15.953Z,2.35
2023-01-07T09:35:42.364Z,2.40
2023-01-07T09:38:08.784Z,3.80
2023-01-07T09:40:41.241Z,3.63
2023-01-07T09:43:59.321Z,2.90
2023-01-07T09:46:24.422Z,3.88
2023-01-07T09:49:03.674Z,3.78
2023-01-07T09:51:38.805Z,3.88
2023-01-07T09:54:18.474Z,4.22
2023-01-07T09:56:45.916Z,3.58
2023-01-07T09:59:19.618Z,3.72
2023-01-07T10:01:54.691Z,4.10
2023-01-07T10:04:43.330Z,4.10
2023-01-07T10:07:29.196Z,4.68
2023-01-07T10:10:23.065Z,4.53
2023-01-07T10:12:55.511Z,4.38
2023-01-07T10:15:30.876Z,4.30
2023-01-07T10:18:10.596Z,4.63
2023-01-07T10:20:55.520Z,4.85
2023-01-07T10:23:32.539Z,4.75
2023-01-07T10:26:01.335Z,5.10
2023-01-07T10:28:57.028Z,4.75
2023-01-07T10:31:27.614Z,4.68
2023-01-07T10:33:56.219Z,4.80
2023-01-07T10:36:30.832Z,4.53
2023-01-07T10:39:11.966Z,4.43
2023-01-07T10:41:48.681Z,4.43
2023-01-07T10:44:39.722Z,4.80
2023-01-07T10:50:22.166Z,4.53
2023-01-07T10:53:26.551Z,4.43
2023-01-07T10:56:20.442Z,4.32
2023-01-07T10:58:49.271Z,4.20
2023-01-07T11:01:31.489Z,3.95
2023-01-07T11:03:58.988Z,4.18
2023-01-07T11:06:48.261Z,4.10
2023-01-07T11:09:30.434Z,4.82
2023-01-07T11:12:01.346Z,5.32
2023-01-07T11:14:30.906Z,4.10
2023-01-07T11:17:23.993Z,4.35
2023-01-07T11:19:50.908Z,4.72
2023-01-07T11:22:26.271Z,4.55
2023-01-07T11:24:58.315Z,3.90
2023-01-07T11:27:30.069Z,3.67
2023-01-07T11:30:19.660Z,3.90
2023-01-07T11:32:55.931Z,3.85
2023-01-07T11:35:25.243Z,4.55
2023-01-07T11:37:51.790Z,3.65
2023-01-07T11:40:27.711Z,3.97
2023-01-07T11:42:58.046Z,3.72
2023-01-07T11:45:31.219Z,3.17
2023-01-07T11:48:20.284Z,3.83
2023-01-07T11:51:02.107Z,4.38
2023-01-07T11:53:41.870Z,4.10
2023-01-07T11:56:22.981Z,3.88
2023-01-07T11:59:14.496Z,3.58
2023-01-07T12:01:48.142Z,3.47
2023-01-07T12:04:26.793Z,3.30
2023-01-07T12:06:57.602Z,3.85
2023-01-07T12:12:11.143Z,3.58
2023-01-07T12:14:38.840Z,3.60
2023-01-07T12:17:08.195Z,3.28
2023-01-07T12:19:56.067Z,3.35
2023-01-07T12:22:28.632Z,2.88
2023-01-07T12:25:18.147Z,3.65
2023-01-07T12:28:13.700Z,3.15
2023-01-07T12:30:41.447Z,3.53
2023-01-07T12:33:31.488Z,3.53
2023-01-07T12:36:03.117Z,3.40
2023-01-07T12:38:50.826Z,3.45
2023-01-07T12:41:26.306Z,2.95
2023-01-07T12:44:05.694Z,3.85
2023-01-07T12:46:50.231Z,3.92
2023-01-07T12:49:24.676Z,3.38
2023-01-07T12:52:00.510Z,3.40
2023-01-07T12:54:45.022Z,3.28
2023-01-07T12:57:21.660Z,3.30
2023-01-07T12:59:52.575Z,3.47
2023-01-07T13:02:42.111Z,3.78
2023-01-07T13:05:27.619Z,3.42
2023-01-07T13:07:59.057Z,3.90
2023-01-07T13:10:30.827Z,3.65
2023-01-07T13:13:02.498Z,4.00
2023-01-07T13:15:34.683Z,3.33
2023-01-07T13:18:10.176Z,3.50
2023-01-07T13:20:52.069Z,2.80
2023-01-07T13:24:11.460Z,3.33
2023-01-07T13:26:55.753Z,3.20
2023-01-07T13:29:53.504Z,3.10
2023-01-07T13:32:35.259Z,3.33
2023-01-07T13:35:12.313Z,3.30
2023-01-07T13:38:05.196Z,3.35
2023-01-07T13:41:00.702Z,3.03
2023-01-07T13:43:33.558Z,3.58
2023-01-07T13:46:14.014Z,3.55
2023-01-07T13:48:46.740Z,3.60
2023-01-07T13:51:13.570Z,3.60
2023-01-07T13:53:39.875Z,4.10
2023-01-07T13:56:18.513Z,4.45
2023-01-07T13:58:47.599Z,4.53
2023-01-07T14:01:23.750Z,4.75
2023-01-07T14:03:53.655Z,6.97
2023-01-07T14:06:19.956Z,5.00
2023-01-07T14:09:04.970Z,4.43
2023-01-07T14:11:31.248Z,4.85
2023-01-07T14:14:26.632Z,10.73
2023-01-07T14:17:07.386Z,4.10
2023-01-07T14:19:47.968Z,6.45
2023-01-07T14:22:27.258Z,8.10
2023-01-07T14:25:30.761Z,13.95
2023-01-07T14:28:31.439Z,7.28
2023-01-07T14:30:58.375Z,3.92
2023-01-07T14:33:26.272Z,3.72
2023-01-07T14:35:57.061Z,4.22
2023-01-07T14:41:10.754Z,3.72
2023-01-07T14:43:43.109Z,3.80
2023-01-07T14:46:30.608Z,4.28
2023-01-07T14:49:00.037Z,4.18
2023-01-07T14:51:56.224Z,4.60
2023-01-07T14:54:41.827Z,7.30
2023-01-07T14:57:19.663Z,5.45
2023-01-07T15:00:04.754Z,4.40
2023-01-07T15:02:58.400Z,4.80
2023-01-07T15:06:01.707Z,3.90
2023-01-07T15:08:42.136Z,4.55
2023-01-07T15:11:16.125Z,4.10
2023-01-07T15:13:51.141Z,4.05
2023-01-07T15:16:21.563Z,4.68
2023-01-07T15:18:51.022Z,4.00
2023-01-07T15:21:25.711Z,3.80
2023-01-07T15:24:10.087Z,4.78
2023-01-07T15:27:05.867Z,4.03
2023-01-07T15:29:43.548Z,4.43
2023-01-07T15:32:40.278Z,4.80
2023-01-07T15:35:17.540Z,5.60
2023-01-07T15:37:48.761Z,4.95
2023-01-07T15:40:20.514Z,4.60
2023-01-07T15:42:49.835Z,4.47
2023-01-07T15:45:19.627Z,4.88
2023-01-07T15:47:46.235Z,4.72
2023-01-07T15:50:33.038Z,4.55
2023-01-07T15:53:16.796Z,4.00
2023-01-07T15:55:50.936Z,5.82
2023-01-07T15:58:24.534Z,6.03
2023-01-07T16:00:57.084Z,5.40
2023-01-07T16:03:24.567Z,5.63
2023-01-07T16:05:51.130Z,5.25
2023-01-07T16:08:20.870Z,5.20
2023-01-07T16:11:08.778Z,4.90
2023-01-07T16:13:36.854Z,4.75
2023-01-07T16:16:04.216Z,6.15
2023-01-07T16:18:32.375Z,7.38
2023-01-07T16:21:08.372Z,7.43
2023-01-07T16:23:38.137Z,7.95
2023-01-07T16:26:21.244Z,7.38
2023-01-07T16:28:50.936Z,7.57
2023-01-07T16:31:20.934Z,7.20
2023-01-07T16:33:50.040Z,7.05
2023-01-07T16:36:20.891Z,6.93
2023-01-07T16:41:25.763Z,6.57
2023-01-07T16:43:57.670Z,6.00
2023-01-07T16:46:28.010Z,7.18
2023-01-07T16:49:13.419Z,6.82
2023-01-07T16:51:44.372Z,6.57
2023-01-07T16:56:49.742Z,8.02
2023-01-07T16:59:16.168Z,8.10
2023-01-07T17:01:42.701Z,9.40
2023-01-07T17:04:17.726Z,8.57
2023-01-07T17:06:44.557Z,7.63
2023-01-07T17:09:25.304Z,8.20
2023-01-07T17:11:53.508Z,9.20
2023-01-07T17:14:35.015Z,9.32
2023-01-07T17:17:08.999Z,10.50
2023-01-07T17:19:47.751Z,10.90
2023-01-07T17:22:33.847Z,10.98
2023-01-07T17:25:15.806Z,10.45
2023-01-07T17:27:51.229Z,10.27
2023-01-07T17:30:20.741Z,9.73
2023-01-07T17:32:49.178Z,8.57
2023-01-07T17:35:17.644Z,7.90
2023-01-07T17:37:43.958Z,8.07
2023-01-07T17:40:11.108Z,7.57
2023-01-07T17:42:37.568Z,8.75
2023-01-07T17:45:04.294Z,9.40
2023-01-07T17:47:30.597Z,8.73
2023-01-07T17:49:57.053Z,8.85
2023-01-07T17:52:23.786Z,9.65
2023-01-07T17:54:50.114Z,9.75
2023-01-07T17:57:16.540Z,9.98
2023-01-07T17:59:42.951Z,9.35
2023-01-07T18:02:17.283Z,10.85
2023-01-07T18:04:44.121Z,11.13
2023-01-07T18:07:19.499Z,8.63
2023-01-07T18:09:45.976Z,9.32
2023-01-07T18:12:17.860Z,9.95
2023-01-07T18:14:44.191Z,10.23
2023-01-07T18:17:11.171Z,10.00
2023-01-07T18:19:37.499Z,10.48
2023-01-07T18:22:04.107Z,10.25
2023-01-07T18:24:31.513Z,9.52
2023-01-07T18:26:57.857Z,9.48
2023-01-07T18:29:25.137Z,9.68
2023-01-07T18:31:51.720Z,9.50
2023-01-07T18:34:18.350Z,9.48
2023-01-07T18:36:44.851Z,8.50
2023-01-07T18:39:19.225Z,9.98
2023-01-07T18:41:47.007Z,9.15
2023-01-07T18:44:14.177Z,10.63
2023-01-07T18:46:40.504Z,9.20
2023-01-07T18:49:07.250Z,8.35
2023-01-07T18:51:33.815Z,9.05
2023-01-07T18:54:00.160Z,9.18
2023-01-07T18:56:26.510Z,9.40
2023-01-07T18:58:53.824Z,10.35
2023-01-07T19:01:20.568Z,9.90
2023-01-07T19:03:47.875Z,11.18
2023-01-07T19:06:15.596Z,10.20
2023-01-07T19:08:42.127Z,10.77
2023-01-07T19:11:11.284Z,11.38
2023-01-07T19:13:37.777Z,11.45
2023-01-07T19:16:09.440Z,11.93
2023-01-07T19:18:36.011Z,11.52
2023-01-07T19:21:03.403Z,12.15
2023-01-07T19:23:31.158Z,11.32
2023-01-07T19:26:03.134Z,12.45
2023-01-07T19:28:29.648Z,11.80
2023-01-07T19:30:56.285Z,11.77
2023-01-07T19:33:22.786Z,12.52
2023-01-07T19:35:49.130Z,12.77
2023-01-07T19:38:15.666Z,13.15
2023-01-07T19:40:45.823Z,14.02
2023-01-07T19:43:12.884Z,13.15
2023-01-07T19:45:40.260Z,13.23
2023-01-07T19:48:07.386Z,12.57
2023-01-07T19:50:33.986Z,12.27
2023-01-07T19:53:00.333Z,11.90
2023-01-07T19:55:26.763Z,11.68
2023-01-07T19:57:53.122Z,11.85
2023-01-07T20:00:19.483Z,12.30
2023-01-07T20:02:45.903Z,11.95
2023-01-07T20:05:12.216Z,11.68
2023-01-07T20:07:38.737Z,11.85
2023-01-07T20:10:05.420Z,12.35
2023-01-07T20:12:31.913Z,13.30
2023-01-07T20:14:58.335Z,12.40
2023-01-07T20:17:24.627Z,13.40
2023-01-07T20:19:51.101Z,12.40
2023-01-07T20:22:17.925Z,12.45
2023-01-07T20:24:44.368Z,11.85
2023-01-07T20:27:10.835Z,16.00
2023-01-07T20:29:37.295Z,13.52
2023-01-07T20:32:04.078Z,12.85
2023-01-07T20:34:30.493Z,13.30
2023-01-07T20:36:57.031Z,13.15
2023-01-07T20:39:23.340Z,13.80
2023-01-07T20:41:49.847Z,14.15
2023-01-07T20:44:17.171Z,14.45
2023-01-07T20:46:43.864Z,12.43
2023-01-07T20:49:10.405Z,13.98
2023-01-07T20:51:36.904Z,13.57
2023-01-07T20:54:03.381Z,13.20
2023-01-07T20:56:29.757Z,14.18
2023-01-07T20:58:56.523Z,13.13
2023-01-07T21:01:22.980Z,13.37
2023-01-07T21:03:49.877Z,14.25
2023-01-07T21:06:18.644Z,13.70
2023-01-07T21:08:46.889Z,12.25
2023-01-07T21:11:18.625Z,14.73
2023-01-07T21:13:46.150Z,14.70
2023-01-07T21:16:13.540Z,16.63
2023-01-07T21:18:40.014Z,14.67
2023-01-07T21:21:14.915Z,14.82
2023-01-07T21:23:41.767Z,14.33
2023-01-07T21:26:09.275Z,15.13
2023-01-07T21:28:36.073Z,14.45
2023-01-07T21:31:07.049Z,15.00
2023-01-07T21:33:33.395Z,15.77
2023-01-07T21:35:59.836Z,15.13
2023-01-07T21:38:26.353Z,15.03
2023-01-07T21:40:52.746Z,14.82
2023-01-07T21:43:19.034Z,15.02
2023-01-07T21:45:45.375Z,13.70
2023-01-07T21:48:11.940Z,15.47
2023-01-07T21:50:38.452Z,14.67
2023-01-07T21:53:05.111Z,14.23
2023-01-07T21:55:31.705Z,13.57
2023-01-07T21:57:58.283Z,13.50
2023-01-07T22:00:24.674Z,14.07
2023-01-07T22:02:51.063Z,14.23
2023-01-07T22:05:17.529Z,14.37
2023-01-07T22:07:43.979Z,14.50
2023-01-07T22:10:10.601Z,14.77
2023-01-07T22:12:36.919Z,14.25
2023-01-07T22:15:03.583Z,14.33
2023-01-07T22:17:29.947Z,13.27
2023-01-07T22:19:56.450Z,12.77
2023-01-07T22:22:22.929Z,13.67
2023-01-07T22:24:49.251Z,12.27
2023-01-07T22:27:15.553Z,13.77
2023-01-07T22:29:42.292Z,14.20
2023-01-07T22:32:08.610Z,14.10
2023-01-07T22:34:34.943Z,14.20
2023-01-07T22:37:15.036Z,13.33
2023-01-07T22:39:45.996Z,13.93
2023-01-07T22:42:18.530Z,13.40
2023-01-07T22:44:53.922Z,13.43
2023-01-07T22:47:28.486Z,13.83
2023-01-07T22:49:56.074Z,14.90
2023-01-07T22:52:22.674Z,15.27
2023-01-07T22:54:49.126Z,15.20
2023-01-07T22:57:15.805Z,13.93
2023-01-07T22:59:42.440Z,15.17
2023-01-07T23:02:08.746Z,15.20
2023-01-07T23:04:35.387Z,16.87
2023-01-07T23:07:02.019Z,17.70
2023-01-07T23:09:28.473Z,18.30
2023-01-07T23:11:54.849Z,19.80
2023-01-07T23:14:22.813Z,17.87
2023-01-07T23:16:50.438Z,16.63
2023-01-07T23:19:17.798Z,15.20
2023-01-07T23:21:45.854Z,15.70
2023-01-07T23:24:13.544Z,15.80
2023-01-07T23:26:41.089Z,17.80
2023-01-07T23:29:08.188Z,19.90
2023-01-07T23:31:35.785Z,18.40
2023-01-07T23:34:02.714Z,16.73
2023-01-07T23:36:29.786Z,18.80
2023-01-07T23:38:56.119Z,16.47
2023-01-07T23:41:23.146Z,16.00
2023-01-07T23:43:50.694Z,15.63
2023-01-07T23:46:17.130Z,17.07
2023-01-07T23:48:43.480Z,15.53
2023-01-07T23:51:27.906Z,16.07
2023-01-07T23:53:54.364Z,14.10
2023-01-07T23:56:21.740Z,15.20
2023-01-07T23:58:49.016Z,14.23
